createdAt,value
2022-09-10T00:00:08.207Z,60.36
2022-09-10T00:02:36.362Z,60.08
2022-09-10T00:05:04.125Z,60.43
2022-09-10T00:07:32.978Z,60.19
2022-09-10T00:10:00.561Z,60.21
2022-09-10T00:12:28.123Z,60.12
2022-09-10T00:14:55.873Z,59.82
2022-09-10T00:17:24.272Z,60.39
2022-09-10T00:19:51.802Z,60.71
2022-09-10T00:22:19.283Z,61.27
2022-09-10T00:24:48.139Z,61.51
2022-09-10T00:27:15.925Z,61.97
2022-09-10T00:29:43.696Z,62.52
2022-09-10T00:32:11.176Z,63.29
2022-09-10T00:34:38.747Z,63.64
2022-09-10T00:37:06.392Z,63.73
2022-09-10T00:39:34.012Z,64.15
2022-09-10T00:42:02.971Z,64.62
2022-09-10T00:44:56.905Z,65.53
2022-09-10T00:47:28.936Z,66.25
2022-09-10T00:50:01.906Z,66.70
2022-09-10T00:52:29.786Z,66.81
2022-09-10T00:54:57.616Z,67.11
2022-09-10T00:57:29.140Z,68.19
2022-09-10T01:00:01.280Z,68.14
2022-09-10T01:02:29.298Z,67.96
2022-09-10T01:04:58.894Z,68.26
2022-09-10T01:07:29.033Z,68.42
2022-09-10T01:09:58.918Z,68.15
2022-09-10T01:12:46.384Z,68.41
2022-09-10T01:15:25.449Z,67.93
2022-09-10T01:18:11.333Z,68.68
2022-09-10T01:21:00.757Z,69.01
2022-09-10T01:23:57.460Z,69.02
2022-09-10T01:26:49.382Z,69.45
2022-09-10T01:29:24.947Z,69.11
2022-09-10T01:31:56.737Z,68.74
2022-09-10T01:34:30.468Z,68.90
2022-09-10T01:37:04.965Z,68.98
2022-09-10T01:39:34.084Z,68.54
2022-09-10T01:42:01.905Z,68.52
2022-09-10T01:44:48.131Z,69.21
2022-09-10T01:47:25.513Z,68.98
2022-09-10T01:50:10.042Z,69.02
2022-09-10T01:52:46.588Z,68.66
2022-09-10T01:55:27.255Z,68.94
2022-09-10T01:58:00.100Z,68.85
2022-09-10T02:00:29.216Z,68.67
2022-09-10T02:03:00.707Z,68.81
2022-09-10T02:05:30.781Z,68.62
2022-09-10T02:08:02.340Z,68.53
2022-09-10T02:10:30.080Z,68.37
2022-09-10T02:12:57.699Z,68.34
2022-09-10T02:15:28.685Z,68.66
2022-09-10T02:17:58.888Z,68.03
2022-09-10T02:20:26.661Z,68.54
2022-09-10T02:22:59.162Z,68.58
2022-09-10T02:25:26.948Z,67.92
2022-09-10T02:27:54.963Z,68.13
2022-09-10T02:30:24.796Z,68.46
2022-09-10T02:32:52.323Z,68.43
2022-09-10T02:35:21.154Z,69.21
2022-09-10T02:37:50.577Z,69.37
2022-09-10T02:40:19.498Z,69.72
2022-09-10T02:42:47.503Z,69.37
2022-09-10T02:45:15.328Z,69.50
2022-09-10T02:47:43.088Z,69.76
2022-09-10T02:50:11.672Z,69.93
2022-09-10T02:52:40.555Z,69.88
2022-09-10T02:55:08.843Z,70.08
2022-09-10T02:57:36.358Z,70.21
2022-09-10T03:00:04.806Z,71.27
2022-09-10T03:02:32.369Z,71.55
2022-09-10T03:05:00.328Z,71.43
2022-09-10T03:07:27.844Z,70.46
2022-09-10T03:09:56.765Z,70.85
2022-09-10T03:12:24.296Z,71.00
2022-09-10T03:14:52.030Z,71.25
2022-09-10T03:17:19.541Z,71.29
2022-09-10T03:19:47.090Z,71.75
2022-09-10T03:22:14.618Z,71.66
2022-09-10T03:24:43.123Z,71.79
2022-09-10T03:27:13.979Z,71.97
2022-09-10T03:29:41.465Z,72.07
2022-09-10T03:32:09.115Z,71.54
2022-09-10T03:34:36.635Z,71.69
2022-09-10T03:37:04.346Z,71.90
2022-09-10T03:39:32.061Z,71.68
2022-09-10T03:41:59.676Z,71.45
2022-09-10T03:44:28.463Z,71.89
2022-09-10T03:46:55.963Z,72.04
2022-09-10T03:49:23.611Z,71.94
2022-09-10T03:51:51.157Z,72.17
2022-09-10T03:54:19.266Z,71.85
2022-09-10T03:56:46.869Z,71.50
2022-09-10T03:59:14.882Z,71.37
2022-09-10T04:01:43.761Z,71.84
2022-09-10T04:04:11.300Z,71.64
2022-09-10T04:06:40.198Z,71.94
2022-09-10T04:09:07.884Z,71.80
2022-09-10T04:11:35.922Z,71.74
2022-09-10T04:14:03.442Z,72.20
2022-09-10T04:16:32.524Z,71.91
2022-09-10T04:19:01.440Z,71.96
2022-09-10T04:21:28.981Z,72.08
2022-09-10T04:23:56.992Z,72.48
2022-09-10T04:26:24.767Z,72.46
2022-09-10T04:28:52.553Z,72.72
2022-09-10T04:31:20.477Z,72.67
2022-09-10T04:33:49.037Z,72.56
2022-09-10T04:36:17.980Z,73.13
2022-09-10T04:38:45.563Z,73.11
2022-09-10T04:41:15.463Z,72.87
2022-09-10T04:43:43.614Z,73.16
2022-09-10T04:46:11.368Z,72.37
2022-09-10T04:48:39.014Z,72.04
2022-09-10T04:51:16.218Z,72.41
2022-09-10T04:53:47.018Z,72.36
2022-09-10T04:56:14.942Z,72.57
2022-09-10T04:58:44.191Z,73.24
2022-09-10T05:01:12.048Z,72.58
2022-09-10T05:03:39.755Z,72.51
2022-09-10T05:06:07.575Z,72.26
2022-09-10T05:08:36.560Z,72.53
2022-09-10T05:11:05.527Z,72.59
2022-09-10T05:13:33.111Z,72.67
2022-09-10T05:16:01.626Z,73.01
2022-09-10T05:18:29.164Z,72.80
2022-09-10T05:20:56.628Z,72.83
2022-09-10T05:23:24.204Z,72.90
2022-09-10T05:25:51.736Z,72.96
2022-09-10T05:28:21.916Z,73.23
2022-09-10T05:30:51.689Z,73.17
2022-09-10T05:33:19.596Z,72.96
2022-09-10T05:35:51.596Z,73.21
2022-09-10T05:38:19.760Z,73.16
2022-09-10T05:40:48.126Z,73.04
2022-09-10T05:43:15.608Z,72.90
2022-09-10T06:06:35.830Z,72.54
2022-09-10T06:09:03.478Z,72.67
2022-09-10T06:11:31.490Z,72.68
2022-09-10T06:13:59.121Z,72.63
2022-09-10T06:16:26.858Z,73.06
2022-09-10T06:48:40.515Z,73.56
2022-09-10T06:51:13.097Z,73.09
2022-09-10T07:00:33.586Z,73.20
2022-09-10T07:03:01.200Z,73.81
2022-09-10T07:05:33.384Z,74.04
2022-09-10T07:08:02.098Z,73.92
2022-09-10T07:10:31.494Z,74.06
2022-09-10T07:30:10.118Z,72.88
2022-09-10T07:54:26.310Z,73.37
2022-09-10T08:40:44.841Z,69.02
2022-09-10T08:43:15.439Z,69.60
2022-09-10T08:45:49.403Z,69.33
2022-09-10T08:48:20.237Z,69.30
2022-09-10T08:50:54.390Z,69.38
2022-09-10T08:53:27.769Z,69.45
2022-09-10T08:56:02.918Z,68.66
2022-09-10T08:58:41.052Z,69.42
2022-09-10T09:01:15.342Z,70.20
2022-09-10T09:03:46.049Z,67.69
2022-09-10T09:06:25.196Z,67.94
2022-09-10T09:08:54.296Z,66.50
2022-09-10T09:11:34.357Z,64.52
2022-09-10T09:14:13.950Z,64.19
2022-09-10T09:16:59.886Z,63.02
2022-09-10T09:19:33.975Z,61.81
2022-09-10T09:22:08.074Z,62.12
2022-09-10T09:24:48.448Z,60.12
2022-09-10T09:27:20.151Z,60.61
2022-09-10T09:29:53.102Z,59.33
2022-09-10T09:32:22.630Z,59.41
2022-09-10T09:34:54.396Z,59.85
2022-09-10T09:37:25.675Z,57.66
2022-09-10T09:40:06.403Z,58.55
2022-09-10T09:42:43.046Z,56.51
2022-09-10T09:45:23.326Z,56.26
2022-09-10T09:47:51.482Z,52.83
2022-09-10T09:50:19.423Z,53.72
2022-09-10T09:52:47.809Z,52.42
2022-09-10T09:55:27.578Z,51.94
2022-09-10T09:58:33.771Z,53.12
2022-09-10T10:01:20.716Z,52.26
2022-09-10T10:03:58.752Z,52.10
2022-09-10T10:06:29.496Z,53.13
2022-09-10T10:09:01.007Z,53.13
2022-09-10T10:11:57.793Z,53.80
2022-09-10T10:14:36.493Z,52.68
2022-09-10T10:17:21.694Z,53.85
2022-09-10T10:19:59.672Z,53.48
2022-09-10T10:22:30.062Z,52.69
2022-09-10T10:24:57.678Z,53.35
2022-09-10T10:27:32.793Z,51.24
2022-09-10T10:30:06.073Z,52.93
2022-09-10T10:32:41.650Z,53.92
2022-09-10T10:35:35.916Z,51.60
2022-09-10T10:38:26.266Z,51.95
2022-09-10T10:41:09.625Z,52.85
2022-09-10T10:43:48.286Z,50.82
2022-09-10T10:46:23.380Z,50.07
2022-09-10T10:49:03.993Z,51.39
2022-09-10T10:51:42.965Z,51.98
2022-09-10T10:54:28.486Z,51.61
2022-09-10T10:57:06.413Z,51.87
2022-09-10T10:59:46.364Z,52.52
2022-09-10T11:02:21.687Z,51.51
2022-09-10T11:04:51.450Z,50.98
2022-09-10T11:07:23.353Z,52.30
2022-09-10T11:09:58.514Z,53.22
2022-09-10T11:12:31.966Z,54.98
2022-09-10T11:15:06.048Z,55.24
2022-09-10T11:17:39.354Z,56.94
2022-09-10T11:20:28.497Z,58.18
2022-09-10T11:23:05.363Z,58.80
2022-09-10T11:25:39.962Z,59.39
2022-09-10T11:28:14.583Z,60.03
2022-09-10T11:30:58.016Z,59.90
2022-09-10T11:33:34.725Z,59.03
2022-09-10T11:36:12.190Z,60.92
2022-09-10T11:38:50.484Z,60.96
2022-09-10T11:41:22.941Z,61.18
2022-09-10T11:43:58.174Z,63.31
2022-09-10T11:46:32.268Z,60.49
2022-09-10T11:49:06.209Z,63.76
2022-09-10T11:51:36.999Z,61.76
2022-09-10T11:54:07.274Z,63.22
2022-09-10T11:56:59.660Z,64.25
2022-09-10T11:59:54.195Z,63.78
2022-09-10T12:02:52.173Z,63.79
2022-09-10T12:05:27.698Z,63.45
2022-09-10T12:08:04.867Z,64.37
2022-09-10T12:10:36.527Z,65.17
2022-09-10T12:13:09.497Z,64.65
2022-09-10T12:15:38.704Z,65.34
2022-09-10T12:18:14.228Z,63.92
2022-09-10T12:20:49.646Z,64.80
2022-09-10T12:23:19.278Z,64.85
2022-09-10T12:25:57.800Z,63.89
2022-09-10T12:29:04.213Z,63.75
2022-09-10T12:32:05.164Z,64.17
2022-09-10T12:34:32.880Z,64.54
2022-09-10T12:37:28.084Z,63.63
2022-09-10T12:40:33.003Z,63.52
2022-09-10T12:43:21.464Z,62.85
2022-09-10T12:46:02.320Z,64.59
2022-09-10T12:48:30.567Z,62.84
2022-09-10T12:51:00.506Z,62.58
2022-09-10T12:54:07.926Z,61.67
2022-09-10T12:57:17.432Z,62.73
2022-09-10T13:00:13.129Z,61.75
2022-09-10T13:02:49.021Z,64.00
2022-09-10T13:05:25.627Z,61.35
2022-09-10T13:08:21.349Z,61.14
2022-09-10T13:11:16.512Z,61.54
2022-09-10T13:13:51.898Z,61.24
2022-09-10T13:16:38.227Z,61.45
2022-09-10T13:19:42.965Z,59.39
2022-09-10T13:22:55.205Z,58.79
2022-09-10T13:25:34.988Z,58.89
2022-09-10T13:28:12.443Z,58.32
2022-09-10T13:30:41.285Z,58.46
2022-09-10T13:33:17.702Z,59.81
2022-09-10T13:36:05.551Z,59.93
2022-09-10T13:38:54.486Z,59.12
2022-09-10T13:41:39.489Z,59.28
2022-09-10T13:44:26.727Z,57.95
2022-09-10T13:46:57.252Z,57.96
2022-09-10T13:49:32.853Z,56.29
2022-09-10T13:52:04.616Z,56.47
2022-09-10T13:54:35.526Z,55.12
2022-09-10T13:57:11.329Z,55.92
2022-09-10T13:59:42.549Z,55.00
2022-09-10T14:02:10.211Z,54.01
2022-09-10T14:04:43.121Z,53.90
2022-09-10T14:07:16.182Z,53.95
2022-09-10T14:09:46.224Z,53.86
2022-09-10T14:12:16.096Z,54.39
2022-09-10T14:14:48.795Z,55.63
2022-09-10T14:17:19.348Z,55.12
2022-09-10T14:19:51.644Z,55.86
2022-09-10T14:22:22.346Z,55.72
2022-09-10T14:24:53.965Z,56.41
2022-09-10T14:27:25.587Z,56.94
2022-09-10T14:29:56.447Z,56.71
2022-09-10T14:32:29.210Z,57.80
2022-09-10T14:34:57.337Z,56.15
2022-09-10T14:37:32.160Z,56.54
2022-09-10T14:40:05.749Z,55.76
2022-09-10T14:42:35.753Z,56.74
2022-09-10T14:45:05.884Z,57.00
2022-09-10T14:47:37.060Z,56.02
2022-09-10T14:50:28.207Z,57.82
2022-09-10T15:18:50.751Z,55.25
2022-09-10T15:21:55.692Z,55.27
2022-09-10T15:25:16.375Z,55.47
2022-09-10T15:27:57.227Z,56.08
2022-09-10T21:43:17.603Z,72.76
2022-09-10T22:50:14.703Z,70.46
